createdAt,value
2023-01-05T00:03:59.523Z,-10.24
2023-01-05T00:09:21.393Z,-10.49
2023-01-05T00:15:01.841Z,-10.55
2023-01-05T00:20:43.351Z,-10.68
2023-01-05T00:26:06.273Z,-10.73
2023-01-05T00:31:28.523Z,-10.89
2023-01-05T00:36:50.844Z,-10.70
2023-01-05T00:42:15.093Z,-10.44
2023-01-05T00:47:37.178Z,-10.19
2023-01-05T00:52:59.472Z,-10.06
2023-01-05T00:58:21.625Z,-9.88
2023-01-05T01:03:43.867Z,-9.66
2023-01-05T01:09:09.044Z,-9.24
2023-01-05T01:14:33.297Z,-9.16
2023-01-05T01:20:00.522Z,-9.14
2023-01-05T01:25:25.081Z,-9.02
2023-01-05T01:30:48.015Z,-9.02
2023-01-05T01:36:10.859Z,-9.04
2023-01-05T01:41:42.476Z,-9.15
2023-01-05T01:47:04.727Z,-9.09
2023-01-05T01:52:37.890Z,-9.30
2023-01-05T01:58:07.897Z,-9.23
2023-01-05T02:03:32.161Z,-9.00
2023-01-05T02:08:55.169Z,-8.83
2023-01-05T02:14:41.453Z,-8.83
2023-01-05T02:20:22.653Z,-8.64
2023-01-05T02:26:14.081Z,-8.56
2023-01-05T02:31:44.253Z,-8.65
2023-01-05T02:37:10.508Z,-8.57
2023-01-05T02:42:40.021Z,-8.39
2023-01-05T02:48:02.221Z,-8.42
2023-01-05T02:53:48.550Z,-8.46
2023-01-05T02:59:38.860Z,-8.37
2023-01-05T03:05:17.085Z,-8.54
2023-01-05T03:11:28.506Z,-8.35
2023-01-05T03:16:56.021Z,-8.32
2023-01-05T03:22:47.355Z,-8.43
2023-01-05T03:28:30.091Z,-8.38
2023-01-05T03:34:35.889Z,-8.70
2023-01-05T03:40:03.963Z,-8.78
2023-01-05T03:45:49.714Z,-9.07
2023-01-05T03:51:19.668Z,-9.24
2023-01-05T03:56:46.501Z,-9.40
2023-01-05T04:02:10.963Z,-9.25
2023-01-05T04:07:42.214Z,-9.11
2023-01-05T04:13:05.253Z,-8.90
2023-01-05T04:18:33.835Z,-8.95
2023-01-05T04:23:59.382Z,-8.88
2023-01-05T04:29:24.496Z,-8.99
2023-01-05T04:34:48.982Z,-9.23
2023-01-05T04:40:13.751Z,-9.49
2023-01-05T04:45:49.504Z,-9.68
2023-01-05T04:51:15.445Z,-9.66
2023-01-05T04:56:37.674Z,-9.86
2023-01-05T05:02:07.063Z,-10.05
2023-01-05T05:07:35.306Z,-10.20
2023-01-05T05:12:59.131Z,-10.37
2023-01-05T05:18:25.348Z,-10.45
2023-01-05T05:23:48.679Z,-10.61
2023-01-05T05:29:17.830Z,-10.66
2023-01-05T05:34:40.289Z,-10.69
2023-01-05T05:40:15.283Z,-10.88
2023-01-05T05:45:46.267Z,-10.93
2023-01-05T05:51:12.733Z,-11.01
2023-01-05T05:56:37.472Z,-11.00
2023-01-05T06:02:00.016Z,-11.08
2023-01-05T06:07:24.532Z,-11.15
2023-01-05T06:12:49.145Z,-11.13
2023-01-05T06:18:11.392Z,-11.28
2023-01-05T06:23:36.210Z,-11.38
2023-01-05T06:29:00.819Z,-11.58
2023-01-05T06:34:23.043Z,-11.74
2023-01-05T06:39:45.399Z,-11.82
2023-01-05T06:45:08.669Z,-11.80
2023-01-05T06:50:33.527Z,-11.64
2023-01-05T06:55:55.439Z,-11.68
2023-01-05T07:01:20.300Z,-11.51
2023-01-05T07:06:42.265Z,-11.50
2023-01-05T07:12:04.638Z,-11.30
2023-01-05T07:17:26.954Z,-11.00
2023-01-05T07:22:51.718Z,-11.01
2023-01-05T07:28:13.781Z,-11.00
2023-01-05T07:33:40.246Z,-10.82
2023-01-05T07:39:02.734Z,-10.58
2023-01-05T07:44:24.989Z,-10.64
2023-01-05T07:49:47.326Z,-10.41
2023-01-05T07:55:10.070Z,-10.44
2023-01-05T08:00:31.935Z,-10.34
2023-01-05T08:05:54.179Z,-10.43
2023-01-05T08:11:18.479Z,-10.40
2023-01-05T08:16:40.283Z,-10.53
2023-01-05T08:22:02.409Z,-10.38
2023-01-05T08:27:24.067Z,-10.29
2023-01-05T08:32:45.997Z,-10.30
2023-01-05T08:38:08.042Z,-10.22
2023-01-05T08:43:30.533Z,-10.13
2023-01-05T08:48:54.099Z,-10.11
2023-01-05T08:54:16.542Z,-10.24
2023-01-05T08:59:39.134Z,-10.34
2023-01-05T09:05:01.893Z,-10.53
2023-01-05T09:10:25.272Z,-10.24
2023-01-05T09:15:50.682Z,-10.38
2023-01-05T09:21:13.729Z,-10.39
2023-01-05T09:26:36.328Z,-10.58
2023-01-05T09:31:58.272Z,-10.54
2023-01-05T09:37:20.194Z,-10.48
2023-01-05T09:42:47.564Z,-10.55
2023-01-05T09:48:15.229Z,-10.40
2023-01-05T09:53:37.780Z,-10.25
2023-01-05T09:59:19.320Z,-10.07
2023-01-05T10:04:42.505Z,-10.12
2023-01-05T10:10:14.587Z,-9.98
2023-01-05T10:15:44.364Z,-10.24
2023-01-05T10:21:27.587Z,-10.55
2023-01-05T10:27:26.782Z,-10.83
2023-01-05T10:33:21.831Z,-11.09
2023-01-05T10:38:56.299Z,-11.25
2023-01-05T10:44:31.818Z,-11.40
2023-01-05T10:49:55.106Z,-11.58
2023-01-05T10:55:19.526Z,-11.64
2023-01-05T11:00:43.195Z,-11.94
2023-01-05T11:06:05.399Z,-12.21
2023-01-05T11:11:27.767Z,-12.23
2023-01-05T11:16:56.363Z,-12.41
2023-01-05T11:22:40.911Z,-12.30
2023-01-05T11:28:06.568Z,-12.39
2023-01-05T11:33:32.899Z,-12.62
2023-01-05T11:39:01.765Z,-12.73
2023-01-05T11:44:30.254Z,-12.86
2023-01-05T11:50:19.158Z,-13.08
2023-01-05T11:55:41.883Z,-13.16
2023-01-05T12:01:30.382Z,-13.30
2023-01-05T12:07:11.347Z,-13.42
2023-01-05T12:12:33.599Z,-13.53
2023-01-05T12:18:27.053Z,-13.81
2023-01-05T12:24:21.673Z,-13.82
2023-01-05T12:35:41.009Z,-14.28
2023-01-05T12:41:21.729Z,-14.45
2023-01-05T12:47:17.070Z,-14.71
2023-01-05T12:52:47.467Z,-15.00
2023-01-05T12:58:23.423Z,-15.31
2023-01-05T13:03:57.433Z,-15.68
2023-01-05T13:09:26.517Z,-15.91
2023-01-05T13:15:04.582Z,-15.78
2023-01-05T13:20:44.724Z,-15.69
2023-01-05T13:26:20.541Z,-15.76
2023-01-05T13:31:42.623Z,-15.83
2023-01-05T13:37:23.222Z,-15.91
2023-01-05T13:43:04.463Z,-16.06
2023-01-05T13:48:34.162Z,-16.09
2023-01-05T13:54:13.734Z,-16.21
2023-01-05T13:59:46.775Z,-16.34
2023-01-05T14:05:30.637Z,-16.67
2023-01-05T14:11:16.203Z,-16.80
2023-01-05T14:16:39.202Z,-16.91
2023-01-05T14:22:23.323Z,-17.05
2023-01-05T14:28:24.121Z,-17.44
2023-01-05T14:33:50.516Z,-17.55
2023-01-05T14:39:18.636Z,-17.52
2023-01-05T14:44:50.420Z,-17.52
2023-01-05T14:50:44.163Z,-17.60
2023-01-05T14:56:35.403Z,-17.63
2023-01-05T15:02:02.711Z,-17.72
2023-01-05T15:07:47.719Z,-17.84
2023-01-05T15:13:43.213Z,-18.08
2023-01-05T15:19:35.081Z,-17.99
2023-01-05T15:25:05.938Z,-18.07
2023-01-05T15:30:43.112Z,-18.15
2023-01-05T15:36:07.165Z,-18.37
2023-01-05T15:41:29.821Z,-18.32
2023-01-05T15:46:52.504Z,-18.33
2023-01-05T15:52:29.968Z,-18.46
2023-01-05T15:58:01.097Z,-18.46
2023-01-05T16:03:34.199Z,-18.78
2023-01-05T16:09:13.071Z,-18.74
2023-01-05T16:15:03.046Z,-18.97
2023-01-05T16:20:40.070Z,-19.00
2023-01-05T16:26:16.428Z,-19.14
2023-01-05T16:31:56.565Z,-19.15
2023-01-05T16:37:25.828Z,-19.26
2023-01-05T16:42:51.080Z,-19.60
2023-01-05T16:48:52.392Z,-19.41
2023-01-05T16:54:41.398Z,-19.61
2023-01-05T17:00:06.226Z,-19.76
2023-01-05T17:05:49.639Z,-19.75
2023-01-05T17:11:13.289Z,-20.02
2023-01-05T17:16:38.810Z,-20.05
2023-01-05T17:22:16.881Z,-20.07
2023-01-05T17:27:42.741Z,-20.11
2023-01-05T17:33:09.619Z,-20.21
2023-01-05T17:38:35.386Z,-20.35
2023-01-05T17:44:01.414Z,-20.46
2023-01-05T17:49:36.913Z,-20.30
2023-01-05T17:55:02.710Z,-20.43
2023-01-05T18:00:27.754Z,-20.51
2023-01-05T18:05:53.646Z,-20.40
2023-01-05T18:11:18.581Z,-20.72
2023-01-05T18:16:53.694Z,-20.74
2023-01-05T18:22:40.694Z,-20.67
2023-01-05T18:28:13.914Z,-20.87
2023-01-05T18:33:43.251Z,-20.93
2023-01-05T18:39:13.173Z,-20.97
2023-01-05T18:44:36.205Z,-21.12
2023-01-05T18:50:01.696Z,-21.29
2023-01-05T18:55:24.804Z,-21.33
2023-01-05T19:00:58.263Z,-21.24
2023-01-05T19:06:24.084Z,-21.31
2023-01-05T19:11:48.681Z,-21.47
2023-01-05T19:17:12.254Z,-21.60
2023-01-05T19:22:36.337Z,-21.76
2023-01-05T19:28:02.172Z,-21.81
2023-01-05T19:33:28.711Z,-21.78
2023-01-05T19:38:52.496Z,-21.90
2023-01-05T19:44:21.514Z,-22.02
2023-01-05T19:49:47.411Z,-21.93
2023-01-05T19:55:17.038Z,-21.92
2023-01-05T20:00:42.911Z,-22.19
2023-01-05T20:06:16.539Z,-22.16
2023-01-05T20:11:41.363Z,-22.39
2023-01-05T20:17:12.765Z,-22.29
2023-01-05T20:22:37.439Z,-22.45
2023-01-05T20:28:05.157Z,-22.51
2023-01-05T20:33:34.993Z,-22.50
2023-01-05T20:39:03.683Z,-22.70
2023-01-05T20:44:29.713Z,-22.59
2023-01-05T20:49:54.803Z,-22.77
2023-01-05T20:55:20.400Z,-22.62
2023-01-05T21:01:10.648Z,-22.58
2023-01-05T21:06:24.810Z,-22.80
2023-01-05T21:11:47.530Z,-22.75
2023-01-05T21:17:09.902Z,-22.78
2023-01-05T21:22:31.800Z,-22.94
2023-01-05T21:27:53.901Z,-23.01
2023-01-05T21:33:15.775Z,-22.98
2023-01-05T21:39:00.987Z,-23.17
2023-01-05T21:44:23.682Z,-23.39
2023-01-05T21:49:46.150Z,-23.46
2023-01-05T21:55:28.887Z,-23.36
2023-01-05T22:00:51.230Z,-23.43
2023-01-05T22:06:13.658Z,-23.72
2023-01-05T22:11:36.570Z,-23.70
2023-01-05T22:16:59.005Z,-23.66
2023-01-05T22:22:25.978Z,-23.79
2023-01-05T22:27:48.029Z,-23.81
2023-01-05T22:33:12.329Z,-23.81
2023-01-05T22:38:46.457Z,-23.93
2023-01-05T22:44:08.878Z,-24.04
2023-01-05T22:49:34.109Z,-24.08
2023-01-05T22:54:58.550Z,-23.96
2023-01-05T23:00:30.033Z,-24.03
2023-01-05T23:05:54.143Z,-24.16
2023-01-05T23:11:37.995Z,-24.34
2023-01-05T23:17:00.300Z,-24.44
2023-01-05T23:22:26.413Z,-24.36
2023-01-05T23:27:48.130Z,-24.46
2023-01-05T23:33:10.594Z,-24.39
2023-01-05T23:38:34.022Z,-24.34
2023-01-05T23:43:56.230Z,-24.33
2023-01-05T23:49:18.341Z,-24.41
2023-01-05T23:54:39.931Z,-24.48
